Time;durP1;ratioP1;P1;durP2;ratioP2;P2;SDS_P1;SDS_P2;PMS_P1;PMS_P2;Temp;Humidity;BMP_temperature;BMP_pressure;BME280_temperature;BME280_humidity;BME280_pressure;Samples;Min_cycle;Max_cycle;Signal;HPM_P1;HPM_P2
2021/10/21 00:00:47;;;;;;;9.00;1.77;;;;;;;27.73;34.33;99230.25;4147450;28;20108;-61
2021/10/21 00:02:50;;;;;;;10.05;1.70;;;;;;;27.66;34.71;99210.50;4146494;28;20437;-61
2021/10/21 00:04:52;;;;;;;9.73;1.50;;;;;;;27.73;34.60;99247.28;4147335;28;20498;-61
2021/10/21 00:06:54;;;;;;;10.73;1.67;;;;;;;27.69;34.64;99243.34;4147498;28;20449;-61
2021/10/21 00:08:56;;;;;;;6.57;1.63;;;;;;;27.71;34.18;99240.44;4147262;28;20049;-61
2021/10/21 00:10:59;;;;;;;6.75;1.30;;;;;;;27.66;34.03;99224.81;4147252;28;20042;-61
2021/10/21 00:13:01;;;;;;;10.48;1.48;;;;;;;27.66;34.44;99219.41;4147594;28;20041;-61
2021/10/21 00:15:05;;;;;;;8.02;1.60;;;;;;;27.68;34.14;99216.50;4145819;28;20037;-61
2021/10/21 00:17:07;;;;;;;7.03;1.40;;;;;;;27.61;34.05;99184.09;4147298;28;20601;-61
2021/10/21 00:19:09;;;;;;;9.07;1.58;;;;;;;27.70;34.06;99220.66;4146983;28;20041;-61
2021/10/21 00:21:11;;;;;;;8.55;1.70;;;;;;;27.67;34.08;99225.63;4147127;28;20101;-61
2021/10/21 00:23:13;;;;;;;8.38;1.58;;;;;;;27.71;34.11;99260.16;4147468;28;20548;-61
2021/10/21 00:25:15;;;;;;;7.93;1.65;;;;;;;27.72;34.24;99223.19;4146887;28;20095;-61
2021/10/21 00:27:17;;;;;;;8.05;1.80;;;;;;;27.71;34.02;99238.53;4147081;28;20489;-61
2021/10/21 00:29:19;;;;;;;7.03;1.40;;;;;;;27.64;34.33;99253.91;4146998;28;20100;-62
2021/10/21 00:31:21;;;;;;;7.07;1.65;;;;;;;27.68;34.29;99251.63;4147053;28;20498;-61
2021/10/21 00:33:24;;;;;;;9.38;1.50;;;;;;;27.69;33.91;99272.19;4147121;28;20046;-61
2021/10/21 00:35:26;;;;;;;6.93;1.50;;;;;;;27.70;33.85;99263.88;4146865;28;20045;-61
2021/10/21 00:37:28;;;;;;;7.18;1.40;;;;;;;27.67;33.84;99239.16;4146963;28;20046;-61
2021/10/21 00:39:30;;;;;;;8.25;1.73;;;;;;;27.70;34.10;99254.97;4146821;28;20065;-61
2021/10/21 00:41:32;;;;;;;7.22;1.60;;;;;;;27.71;34.05;99248.53;4146891;28;20050;-61
2021/10/21 00:43:36;;;;;;;7.40;1.60;;;;;;;27.71;33.81;99257.44;4146848;28;20057;-61
2021/10/21 00:45:38;;;;;;;8.27;1.25;;;;;;;27.69;33.56;99246.03;4146600;28;20069;-61
2021/10/21 00:47:40;;;;;;;7.57;1.80;;;;;;;27.69;33.71;99256.84;4146778;28;20050;-61
2021/10/21 00:49:46;;;;;;;9.07;1.48;;;;;;;27.67;33.67;99241.84;4146895;28;20506;-61
2021/10/21 00:51:49;;;;;;;5.70;1.23;;;;;;;27.69;33.68;99269.50;4142114;28;20050;-61
2021/10/21 00:53:51;;;;;;;7.22;1.42;;;;;;;27.72;33.76;99258.31;4146749;28;20050;-61
2021/10/21 00:55:53;;;;;;;5.82;1.50;;;;;;;27.68;33.47;99270.53;4146552;28;20757;-61
2021/10/21 00:57:55;;;;;;;7.15;1.30;;;;;;;27.67;33.51;99241.84;4146414;28;20053;-61
2021/10/21 00:59:58;;;;;;;7.18;1.60;;;;;;;27.69;33.31;99262.25;4145655;28;20045;-61
2021/10/21 01:02:00;;;;;;;5.13;1.33;;;;;;;27.67;33.48;99269.72;4146444;28;20065;-61
2021/10/21 01:04:03;;;;;;;8.48;1.50;;;;;;;27.69;33.52;99291.09;4146615;28;20513;-61
2021/10/21 01:06:05;;;;;;;6.95;1.13;;;;;;;27.69;33.07;99291.97;4146237;28;20578;-61
2021/10/21 01:08:07;;;;;;;5.25;1.08;;;;;;;27.67;33.33;99295.88;4146344;28;20042;-61
2021/10/21 01:10:10;;;;;;;7.93;1.15;;;;;;;27.65;33.56;99314.16;4146405;28;20054;-61
2021/10/21 01:12:13;;;;;;;6.90;1.55;;;;;;;27.67;33.08;99328.28;4146156;28;20038;-61
2021/10/21 01:14:16;;;;;;;5.85;1.30;;;;;;;27.64;33.33;99299.00;4146360;28;20054;-61
2021/10/21 01:16:18;;;;;;;5.05;1.00;;;;;;;27.63;33.00;99311.63;4146123;28;20096;-61
2021/10/21 01:18:20;;;;;;;8.77;1.55;;;;;;;27.67;33.01;99322.88;4146273;28;20053;-61
2021/10/21 01:20:23;;;;;;;6.40;1.00;;;;;;;27.66;33.04;99327.47;4146389;28;20053;-61
2021/10/21 01:22:27;;;;;;;6.13;1.00;;;;;;;27.61;32.94;99299.38;4146005;28;20132;-61
2021/10/21 01:24:29;;;;;;;6.47;1.00;;;;;;;27.65;33.27;99336.59;4146140;28;20100;-60
2021/10/21 01:26:31;;;;;;;4.90;1.00;;;;;;;27.63;33.45;99340.53;4146137;28;20042;-59
2021/10/21 01:28:33;;;;;;;5.60;0.85;;;;;;;27.62;33.16;99334.31;4146084;28;20050;-59
2021/10/21 01:30:35;;;;;;;4.68;0.88;;;;;;;27.56;33.19;99354.00;4146342;28;20042;-59
2021/10/21 01:32:37;;;;;;;4.97;0.82;;;;;;;27.58;33.18;99370.81;4146040;28;20050;-60
2021/10/21 01:34:39;;;;;;;4.65;0.80;;;;;;;27.60;33.26;99360.66;4146107;28;20053;-59
2021/10/21 01:36:47;;;;;;;3.70;0.80;;;;;;;27.60;32.95;99390.38;4145951;28;20042;-59
2021/10/21 01:38:50;;;;;;;4.82;0.70;;;;;;;27.63;33.05;99381.03;4146081;28;20108;-59
2021/10/21 01:40:52;;;;;;;5.40;0.75;;;;;;;27.60;32.83;99386.84;4146286;28;20589;-59
2021/10/21 01:42:54;;;;;;;3.65;0.70;;;;;;;27.64;33.02;99396.22;4145681;28;20050;-59
2021/10/21 01:44:56;;;;;;;4.03;0.60;;;;;;;27.64;32.62;99407.84;4146040;28;20108;-60
2021/10/21 01:46:58;;;;;;;4.70;0.65;;;;;;;27.54;32.73;99394.69;4145656;28;20041;-60
2021/10/21 01:49:01;;;;;;;6.15;0.80;;;;;;;27.61;32.87;99429.88;4145658;28;20038;-59
2021/10/21 01:51:04;;;;;;;18.85;1.40;;;;;;;27.57;32.08;99415.91;4145892;28;20069;-59
2021/10/21 01:53:06;;;;;;;4.93;0.70;;;;;;;27.60;32.83;99412.00;4145528;28;20038;-60
2021/10/21 01:55:10;;;;;;;3.38;0.60;;;;;;;27.55;32.44;99423.38;4146013;28;20069;-59
2021/10/21 01:57:12;;;;;;;4.65;1.08;;;;;;;27.53;32.78;99447.03;4145432;28;20125;-59
2021/10/21 01:59:14;;;;;;;4.82;0.70;;;;;;;27.53;32.66;99441.63;4145742;28;20049;-59
2021/10/21 02:01:16;;;;;;;4.50;0.85;;;;;;;27.54;32.72;99454.09;4145954;28;20476;-60
2021/10/21 02:03:18;;;;;;;2.95;0.70;;;;;;;27.57;32.58;99439.38;4145799;28;20053;-60
2021/10/21 02:05:21;;;;;;;4.00;0.70;;;;;;;27.56;32.46;99451.22;4146088;28;20068;-60
2021/10/21 02:07:23;;;;;;;4.20;0.75;;;;;;;27.56;32.63;99473.66;4145719;28;20061;-60
2021/10/21 02:09:25;;;;;;;3.67;0.65;;;;;;;27.52;32.30;99469.69;4145733;28;20579;-60
2021/10/21 02:11:27;;;;;;;5.38;0.70;;;;;;;27.53;32.77;99470.53;4145827;28;20120;-60
2021/10/21 02:13:29;;;;;;;2.95;0.57;;;;;;;27.55;32.75;99471.16;4145586;28;20038;-60
2021/10/21 02:15:31;;;;;;;5.35;0.70;;;;;;;27.53;32.41;99498.34;4145903;28;20046;-60
2021/10/21 02:17:33;;;;;;;2.83;0.70;;;;;;;27.51;32.45;99497.72;4145872;28;20053;-60
2021/10/21 02:19:36;;;;;;;5.38;0.70;;;;;;;27.48;32.66;99495.41;4145703;28;20468;-60
2021/10/21 02:21:38;;;;;;;3.45;0.70;;;;;;;27.49;32.55;99521.38;4145960;28;20053;-60
2021/10/21 02:23:40;;;;;;;2.35;0.50;;;;;;;27.48;32.41;99510.78;4145565;28;20046;-60
2021/10/21 02:25:42;;;;;;;4.93;0.60;;;;;;;27.45;32.57;99521.97;4145708;28;20050;-60
2021/10/21 02:27:44;;;;;;;4.45;0.60;;;;;;;27.52;32.43;99553.41;4145846;28;20607;-60
2021/10/21 02:29:46;;;;;;;4.97;0.60;;;;;;;27.43;32.16;99535.66;4145246;28;20108;-60
2021/10/21 02:31:48;;;;;;;3.33;0.52;;;;;;;27.56;31.96;99553.84;4145669;28;20465;-60
2021/10/21 02:33:50;;;;;;;4.13;0.50;;;;;;;27.53;32.19;99590.16;4145347;28;20042;-60
2021/10/21 02:35:52;;;;;;;3.80;0.60;;;;;;;27.52;31.99;99587.66;4145544;28;20049;-60
2021/10/21 02:37:55;;;;;;;4.03;0.50;;;;;;;27.52;31.93;99598.47;4145904;28;20050;-60
2021/10/21 02:39:57;;;;;;;2.90;0.50;;;;;;;27.42;32.12;99559.13;4145264;28;20041;-60
2021/10/21 02:41:59;;;;;;;2.55;0.52;;;;;;;27.44;32.40;99601.28;4145543;28;20049;-60
2021/10/21 02:44:01;;;;;;;11.57;1.00;;;;;;;27.47;32.22;99612.53;4145466;28;20045;-60
2021/10/21 02:46:04;;;;;;;2.65;0.50;;;;;;;27.50;31.98;99622.97;4145342;28;20038;-60
2021/10/21 02:48:06;;;;;;;4.05;0.50;;;;;;;27.46;32.12;99635.16;4145634;28;20046;-60
2021/10/21 02:50:08;;;;;;;2.35;0.50;;;;;;;27.52;32.14;99658.72;4145229;28;20042;-60
2021/10/21 02:52:11;;;;;;;2.72;0.65;;;;;;;27.50;31.99;99644.56;4145499;28;20128;-60
2021/10/21 02:54:13;;;;;;;2.83;0.50;;;;;;;27.48;32.16;99665.53;4145298;28;20103;-60
2021/10/21 02:56:15;;;;;;;2.72;0.50;;;;;;;27.50;31.74;99668.88;4145501;28;20044;-60
2021/10/21 02:58:17;;;;;;;2.60;0.52;;;;;;;27.49;31.97;99717.69;4145370;28;20588;-60
2021/10/21 03:00:19;;;;;;;5.22;0.60;;;;;;;27.45;31.92;99682.13;4145364;28;20065;-60
2021/10/21 03:02:21;;;;;;;1.80;0.40;;;;;;;27.44;31.99;99714.69;4145302;28;20054;-60
2021/10/21 03:04:24;;;;;;;2.80;0.80;;;;;;;27.46;32.15;99726.97;4145317;28;20463;-60
2021/10/21 03:06:26;;;;;;;4.50;0.45;;;;;;;27.47;32.02;99744.88;4142059;28;20054;-60
2021/10/21 03:08:28;;;;;;;3.20;0.50;;;;;;;27.45;32.03;99798.25;4145411;28;20418;-60
2021/10/21 03:10:31;;;;;;;2.90;0.50;;;;;;;27.48;31.96;99794.31;4145113;28;20046;-60
2021/10/21 03:12:33;;;;;;;3.45;0.50;;;;;;;27.43;31.78;99792.19;4145319;28;20046;-60
2021/10/21 03:14:55;;;;;;;3.60;0.50;;;;;;;27.41;31.99;99800.47;4145253;28;20045;-60
2021/10/21 03:16:57;;;;;;;2.40;0.60;;;;;;;27.44;32.03;99825.41;4145282;28;20049;-60
2021/10/21 03:18:59;;;;;;;4.45;0.60;;;;;;;27.45;31.69;99852.25;4145394;28;20042;-58
2021/10/21 03:21:01;;;;;;;3.80;0.68;;;;;;;27.46;31.99;99859.31;4145161;28;20421;-59
2021/10/21 03:23:03;;;;;;;4.63;0.65;;;;;;;27.42;31.73;99876.91;4146879;28;20049;-58
2021/10/21 03:25:07;;;;;;;3.70;0.60;;;;;;;27.44;31.94;99906.41;4148129;28;20486;-59
2021/10/21 03:27:09;;;;;;;3.90;0.60;;;;;;;27.43;32.05;99916.41;4148050;28;20041;-59
2021/10/21 03:29:11;;;;;;;5.65;0.80;;;;;;;27.44;31.76;99936.13;4148375;28;20049;-59
2021/10/21 03:31:13;;;;;;;3.33;0.70;;;;;;;27.38;31.90;99951.19;4147783;28;20112;-59
2021/10/21 03:33:15;;;;;;;4.53;0.68;;;;;;;27.40;31.94;99962.63;4147875;28;20074;-58
2021/10/21 03:35:18;;;;;;;4.57;0.80;;;;;;;27.35;31.99;99967.75;4148055;28;20109;-59
2021/10/21 03:37:20;;;;;;;4.95;0.70;;;;;;;27.42;31.84;99971.44;4147692;28;20493;-59
2021/10/21 03:39:22;;;;;;;4.60;0.55;;;;;;;27.38;31.68;100014.13;4147901;28;20054;-60
2021/10/21 03:41:24;;;;;;;4.07;0.90;;;;;;;27.41;31.84;100013.81;4147829;28;20054;-58
2021/10/21 03:43:26;;;;;;;4.22;0.75;;;;;;;27.37;32.08;100052.13;4147915;28;20461;-59
2021/10/21 03:45:29;;;;;;;4.22;0.50;;;;;;;27.35;31.93;100054.16;4147881;28;20461;-59
2021/10/21 03:47:31;;;;;;;3.80;0.70;;;;;;;27.37;31.71;100046.72;4147516;28;20429;-59
2021/10/21 03:49:33;;;;;;;4.43;0.88;;;;;;;27.37;31.77;100079.94;4147622;28;20096;-59
2021/10/21 03:51:35;;;;;;;4.30;0.65;;;;;;;27.38;31.83;100083.50;4147654;28;20465;-59
2021/10/21 03:53:37;;;;;;;4.35;0.75;;;;;;;27.34;32.08;100090.28;4147695;28;20046;-58
2021/10/21 03:55:40;;;;;;;4.75;0.73;;;;;;;27.38;31.86;100114.03;4147863;28;20576;-58
2021/10/21 03:57:42;;;;;;;5.10;0.95;;;;;;;27.40;32.23;100138.16;4147284;28;20537;-59
2021/10/21 03:59:44;;;;;;;4.47;0.75;;;;;;;27.41;31.96;100145.28;4147621;28;20042;-59
2021/10/21 04:01:47;;;;;;;3.70;0.70;;;;;;;27.40;32.25;100151.66;4147382;28;20073;-60
2021/10/21 04:03:49;;;;;;;4.50;0.70;;;;;;;27.40;31.82;100178.66;4147674;28;20522;-59
2021/10/21 04:05:51;;;;;;;2.63;0.60;;;;;;;27.37;31.96;100165.53;4147641;28;20391;-59
2021/10/21 04:07:53;;;;;;;3.63;0.70;;;;;;;27.36;31.85;100170.06;4147340;28;20473;-59
2021/10/21 04:09:55;;;;;;;4.20;0.95;;;;;;;27.37;31.92;100193.34;4147279;28;20094;-59
2021/10/21 04:11:57;;;;;;;3.55;0.80;;;;;;;27.33;31.96;100208.25;4147259;28;20038;-59
2021/10/21 04:14:00;;;;;;;2.40;0.50;;;;;;;27.39;31.72;100206.72;4147153;28;20038;-58
2021/10/21 04:16:02;;;;;;;4.45;0.90;;;;;;;27.36;31.89;100207.88;4147435;28;20053;-59
2021/10/21 04:18:04;;;;;;;4.25;0.98;;;;;;;27.41;32.17;100210.94;4146954;28;20108;-58
2021/10/21 04:20:07;;;;;;;4.70;0.80;;;;;;;27.42;32.07;100223.41;4147208;28;20050;-59
2021/10/21 04:22:09;;;;;;;3.60;0.68;;;;;;;27.41;31.72;100224.44;4147067;28;20096;-59
2021/10/21 04:24:16;;;;;;;2.03;0.50;;;;;;;27.38;31.72;100227.44;4147049;28;20046;-59
2021/10/21 04:26:18;;;;;;;3.47;0.80;;;;;;;27.41;31.76;100237.94;4147068;28;20112;-59
2021/10/21 04:28:20;;;;;;;3.72;1.00;;;;;;;27.38;32.03;100238.25;4147018;28;20050;-60
2021/10/21 04:30:22;;;;;;;3.22;0.60;;;;;;;27.42;31.82;100244.19;4161970;28;20053;-59
2021/10/21 04:32:24;;;;;;;4.43;0.80;;;;;;;27.39;31.71;100250.75;4146983;28;20096;-59
2021/10/21 04:34:26;;;;;;;3.92;0.73;;;;;;;27.40;31.96;100265.94;4146845;28;20042;-59
2021/10/21 04:36:28;;;;;;;3.08;0.60;;;;;;;27.30;32.09;100249.09;4146905;28;20050;-59
2021/10/21 04:38:30;;;;;;;5.38;0.75;;;;;;;27.40;31.76;100282.13;4146585;28;20038;-59
2021/10/21 04:40:34;;;;;;;2.30;0.52;;;;;;;27.44;31.92;100290.75;4147049;28;20050;-59
2021/10/21 04:42:37;;;;;;;3.78;0.60;;;;;;;27.39;31.94;100280.44;4146727;28;20438;-59
2021/10/21 04:44:42;;;;;;;3.63;0.75;;;;;;;27.45;32.11;100292.44;4146718;28;20046;-59
2021/10/21 04:46:45;;;;;;;3.38;0.60;;;;;;;27.45;32.17;100302.38;4146927;28;20073;-59
2021/10/21 04:48:47;;;;;;;3.05;0.70;;;;;;;27.45;32.12;100310.50;4146446;28;20046;-59
2021/10/21 04:50:49;;;;;;;3.90;0.90;;;;;;;27.41;32.21;100321.66;4146753;28;20103;-59
2021/10/21 04:52:55;;;;;;;3.38;0.70;;;;;;;27.46;31.95;100326.50;4146815;28;20506;-59
2021/10/21 04:54:57;;;;;;;4.45;0.80;;;;;;;27.40;31.75;100324.47;4146203;28;20469;-59
2021/10/21 04:56:59;;;;;;;4.25;0.70;;;;;;;27.44;32.08;100335.81;4146788;28;20053;-59
2021/10/21 04:59:01;;;;;;;3.00;0.70;;;;;;;27.42;31.94;100330.59;4146135;28;20049;-58
2021/10/21 05:01:03;;;;;;;3.58;0.85;;;;;;;27.44;32.05;100331.28;4146604;28;20069;-59
2021/10/21 05:03:15;;;;;;;3.53;0.80;;;;;;;27.46;31.94;100344.59;4146853;28;20477;-59
2021/10/21 05:05:17;;;;;;;2.47;0.60;;;;;;;27.47;31.93;100355.22;4145994;28;20495;-59
2021/10/21 05:07:19;;;;;;;3.92;0.90;;;;;;;27.46;32.06;100358.09;4146828;28;20050;-59
2021/10/21 05:09:21;;;;;;;3.40;0.70;;;;;;;27.48;31.90;100377.69;4146139;28;20084;-59
2021/10/21 05:11:23;;;;;;;3.28;0.88;;;;;;;27.41;31.99;100369.41;4146520;28;20046;-59
2021/10/21 05:13:25;;;;;;;4.45;0.98;;;;;;;27.50;32.00;100386.44;4146545;28;20678;-59
2021/10/21 05:15:28;;;;;;;3.55;0.90;;;;;;;27.48;31.81;100385.78;4146164;28;20041;-59
2021/10/21 05:17:30;;;;;;;4.82;0.90;;;;;;;27.45;31.77;100386.97;4146556;28;20521;-59
2021/10/21 05:19:32;;;;;;;4.15;0.93;;;;;;;27.38;32.01;100385.94;4146047;28;20042;-59
2021/10/21 05:21:34;;;;;;;5.68;0.80;;;;;;;27.44;31.87;100409.59;4146310;28;20046;-59
2021/10/21 05:23:37;;;;;;;2.88;0.70;;;;;;;27.43;31.75;100410.59;4146334;28;20049;-59
2021/10/21 05:25:39;;;;;;;3.22;0.70;;;;;;;27.49;32.19;100423.41;4145950;28;20637;-59
2021/10/21 05:27:41;;;;;;;5.28;0.85;;;;;;;27.50;31.75;100435.03;4146309;28;20046;-59
2021/10/21 05:29:43;;;;;;;4.25;0.80;;;;;;;27.50;32.14;100438.59;4145890;28;20103;-59
2021/10/21 05:31:45;;;;;;;4.65;0.80;;;;;;;27.50;31.79;100432.34;4146278;28;20115;-59
2021/10/21 05:33:47;;;;;;;4.25;1.00;;;;;;;27.50;31.76;100440.44;4146194;28;20112;-59
2021/10/21 05:35:50;;;;;;;3.85;0.88;;;;;;;27.48;31.69;100434.41;4145762;28;20049;-59
2021/10/21 05:37:52;;;;;;;5.57;0.98;;;;;;;27.48;32.08;100439.81;4145935;28;20065;-59
2021/10/21 05:39:58;;;;;;;4.32;0.90;;;;;;;27.47;31.68;100443.50;4145944;28;20460;-59
2021/10/21 05:42:00;;;;;;;3.67;0.85;;;;;;;27.46;31.69;100445.34;4145999;28;20042;-59
2021/10/21 05:44:02;;;;;;;4.50;0.98;;;;;;;27.51;31.93;100452.94;4146240;28;20045;-59
2021/10/21 05:46:04;;;;;;;3.67;0.90;;;;;;;27.49;31.58;100449.59;4145197;28;20050;-59
2021/10/21 05:48:06;;;;;;;4.60;1.15;;;;;;;27.50;32.09;100462.91;4145860;28;20049;-59
2021/10/21 05:50:10;;;;;;;3.63;0.90;;;;;;;27.52;31.92;100466.31;4145643;28;20052;-59
2021/10/21 05:52:12;;;;;;;5.00;0.90;;;;;;;27.50;31.98;100460.22;4145868;28;20090;-60
2021/10/21 05:54:14;;;;;;;4.32;0.85;;;;;;;27.41;31.59;100440.50;4146088;28;20453;-59
2021/10/21 05:56:16;;;;;;;4.45;0.90;;;;;;;27.50;31.75;100459.34;4145735;28;20557;-59
2021/10/21 05:58:18;;;;;;;5.22;1.15;;;;;;;27.43;31.98;100472.72;4145710;28;20057;-59
2021/10/21 06:00:20;;;;;;;3.88;0.88;;;;;;;27.47;31.63;100476.75;4145720;28;20046;-59
2021/10/21 06:02:22;;;;;;;4.88;1.05;;;;;;;27.47;31.61;100474.03;4145840;28;20445;-59
2021/10/21 06:04:25;;;;;;;6.63;1.15;;;;;;;27.46;31.56;100477.75;4145939;28;20046;-59
2021/10/21 06:06:27;;;;;;;4.78;1.08;;;;;;;27.47;31.92;100479.44;4145680;28;20057;-58
2021/10/21 06:08:29;;;;;;;4.28;1.00;;;;;;;27.53;32.02;100481.47;4145708;28;20398;-59
2021/10/21 06:10:32;;;;;;;4.82;0.80;;;;;;;27.52;31.98;100485.22;4145599;28;20085;-59
2021/10/21 06:12:34;;;;;;;3.35;1.00;;;;;;;27.52;31.62;100487.91;4145618;28;20088;-59
2021/10/21 06:14:36;;;;;;;3.70;0.90;;;;;;;27.56;31.84;100499.22;4146126;28;20057;-58
2021/10/21 06:16:41;;;;;;;4.72;1.15;;;;;;;27.52;31.93;100496.00;4145437;28;20042;-59
2021/10/21 06:18:43;;;;;;;4.28;0.88;;;;;;;27.50;31.70;100498.03;4145528;28;20406;-59
2021/10/21 06:20:45;;;;;;;5.22;1.10;;;;;;;27.51;31.81;100505.13;4145525;28;20100;-59
2021/10/21 06:22:47;;;;;;;5.70;1.30;;;;;;;27.51;31.69;100506.97;4134898;28;20435;-59
2021/10/21 06:24:49;;;;;;;5.25;1.23;;;;;;;27.52;31.60;100504.13;4145803;28;20046;-58
2021/10/21 06:26:51;;;;;;;5.68;1.10;;;;;;;27.54;32.00;100502.06;4141845;28;20045;-59
2021/10/21 06:28:53;;;;;;;3.83;0.85;;;;;;;27.54;31.94;100515.56;4137251;28;20434;-58
2021/10/21 06:30:56;;;;;;;4.28;1.20;;;;;;;27.52;31.73;100505.94;4145543;28;20104;-59
2021/10/21 06:32:58;;;;;;;5.28;1.20;;;;;;;27.54;31.71;100520.13;4134025;28;20113;-59
2021/10/21 06:35:00;;;;;;;5.85;1.35;;;;;;;27.55;31.62;100513.72;4144847;28;20041;-60
2021/10/21 06:37:05;;;;;;;4.47;1.15;;;;;;;27.53;32.19;100521.97;4143057;28;20181;-58
2021/10/21 06:39:07;;;;;;;4.88;1.15;;;;;;;27.53;31.85;100515.75;4136063;28;20034;-59
2021/10/21 06:41:10;;;;;;;4.75;1.20;;;;;;;27.40;31.75;100492.78;4145623;28;20418;-59
2021/10/21 06:43:12;;;;;;;5.18;1.10;;;;;;;27.49;32.03;100520.66;4134843;28;20492;-59
2021/10/21 06:45:15;;;;;;;5.95;1.13;;;;;;;27.52;32.13;100527.56;4143781;28;20050;-59
2021/10/21 06:47:17;;;;;;;5.85;1.17;;;;;;;27.45;31.93;100510.34;4143654;28;20054;-59
2021/10/21 06:49:20;;;;;;;6.43;1.30;;;;;;;27.43;31.67;100515.94;4135129;28;20411;-59
2021/10/21 06:51:22;;;;;;;4.72;1.00;;;;;;;27.53;32.04;100540.88;4145328;28;20143;-59
2021/10/21 06:53:25;;;;;;;5.93;1.40;;;;;;;27.51;31.87;100539.38;4135822;28;20057;-59
2021/10/21 06:55:27;;;;;;;6.53;1.42;;;;;;;27.53;32.03;100540.06;4142604;28;20053;-59
2021/10/21 06:57:29;;;;;;;6.60;1.30;;;;;;;27.54;31.95;100545.28;4144397;28;20062;-61
2021/10/21 06:59:31;;;;;;;6.40;1.33;;;;;;;27.53;31.85;100549.00;4135946;28;20044;-61
2021/10/21 07:01:34;;;;;;;6.93;1.33;;;;;;;27.52;31.96;100558.13;4148632;28;20096;-59
2021/10/21 07:03:36;;;;;;;7.03;1.40;;;;;;;27.53;31.83;100561.66;4139998;28;20050;-59
2021/10/21 07:05:39;;;;;;;7.90;1.35;;;;;;;27.52;32.02;100559.97;4144164;28;20702;-58
2021/10/21 07:07:42;;;;;;;5.43;1.42;;;;;;;27.52;31.77;100568.94;4146927;28;20696;-59
2021/10/21 07:09:44;;;;;;;5.68;1.25;;;;;;;27.50;31.83;100565.56;4137262;28;20539;-59
2021/10/21 07:11:55;;;;;;;7.75;1.27;;;;;;;27.49;31.70;100565.75;4148602;28;20050;-59
2021/10/21 07:13:57;;;;;;;6.45;1.35;;;;;;;27.44;32.03;100555.44;4139946;28;20046;-59
2021/10/21 07:15:59;;;;;;;7.03;1.30;;;;;;;27.48;31.75;100574.84;4144084;28;20046;-59
2021/10/21 07:18:02;;;;;;;6.63;1.30;;;;;;;27.52;31.76;100576.19;4146675;28;20105;-59
2021/10/21 07:20:05;;;;;;;6.32;1.40;;;;;;;27.53;32.01;100585.97;4136890;28;20046;-59
2021/10/21 07:22:07;;;;;;;5.25;1.08;;;;;;;27.54;31.59;100577.69;4148096;28;20049;-59
2021/10/21 07:24:09;;;;;;;6.18;1.48;;;;;;;27.54;31.72;100582.28;4141371;28;20100;-59
2021/10/21 07:26:12;;;;;;;8.32;1.48;;;;;;;27.41;32.12;100567.44;4136911;28;20042;-59
2021/10/21 07:28:15;;;;;;;7.20;1.60;;;;;;;27.49;32.05;100598.97;4133524;28;20058;-59
2021/10/21 07:30:17;;;;;;;8.85;1.60;;;;;;;27.52;32.00;100612.16;4137101;28;20058;-58
2021/10/21 07:32:19;;;;;;;6.63;1.50;;;;;;;27.51;32.03;100604.22;4148214;28;20049;-59
2021/10/21 07:34:21;;;;;;;6.82;1.50;;;;;;;27.55;31.84;100608.28;4142168;28;20038;-59
2021/10/21 07:36:23;;;;;;;5.50;1.30;;;;;;;27.55;31.60;100609.09;4141777;28;20541;-58
2021/10/21 07:38:29;;;;;;;6.07;1.52;;;;;;;27.55;31.61;100608.28;4147273;28;20426;-59
2021/10/21 07:40:31;;;;;;;7.43;2.00;;;;;;;27.53;31.49;100611.13;4136623;28;20043;-59
2021/10/21 07:42:34;;;;;;;7.43;1.70;;;;;;;27.55;31.83;100617.22;4148181;28;20069;-60
2021/10/21 07:44:43;;;;;;;7.18;1.60;;;;;;;27.52;31.98;100632.91;4142762;28;20097;-59
2021/10/21 07:46:46;;;;;;;6.63;1.35;;;;;;;27.56;31.60;100636.97;4141611;28;20588;-60
2021/10/21 07:48:50;;;;;;;6.15;1.33;;;;;;;27.55;31.74;100638.00;4147075;28;20046;-59
2021/10/21 07:50:52;;;;;;;7.05;1.48;;;;;;;27.52;31.85;100636.47;4136710;28;20046;-59
2021/10/21 07:52:54;;;;;;;5.97;1.50;;;;;;;27.50;31.72;100635.78;4147886;28;20325;-59
2021/10/21 07:54:56;;;;;;;7.18;1.70;;;;;;;27.56;31.90;100656.72;4142672;28;20082;-59
2021/10/21 07:56:59;;;;;;;6.22;1.52;;;;;;;27.57;31.80;100654.84;4140733;28;20483;-59
2021/10/21 07:59:02;;;;;;;6.38;1.50;;;;;;;27.50;31.78;100651.13;4147359;28;20053;-59
2021/10/21 08:01:04;;;;;;;6.13;1.55;;;;;;;27.56;31.85;100651.31;4147681;28;20061;-59
2021/10/21 08:03:06;;;;;;;6.45;1.75;;;;;;;27.60;31.95;100661.81;4147731;28;20066;-59
2021/10/21 08:05:10;;;;;;;5.00;1.20;;;;;;;27.57;31.59;100663.81;4147153;28;20049;-58
2021/10/21 08:07:12;;;;;;;5.40;1.25;;;;;;;27.55;31.56;100667.72;4147451;28;20037;-59
2021/10/21 08:09:15;;;;;;;6.85;1.40;;;;;;;27.55;31.56;100652.31;4139260;28;20080;-58
2021/10/21 08:11:17;;;;;;;8.20;1.55;;;;;;;27.64;31.88;100655.03;4156178;28;20058;-59
2021/10/21 08:13:19;;;;;;;7.50;1.60;;;;;;;27.62;31.05;100662.47;4156467;28;20277;-59
2021/10/21 08:15:23;;;;;;;10.00;1.77;;;;;;;27.56;30.57;100664.81;4155933;28;20058;-59
2021/10/21 08:17:25;;;;;;;7.70;1.85;;;;;;;27.54;30.35;100666.00;4156434;28;20068;-60
2021/10/21 08:19:29;;;;;;;8.40;1.77;;;;;;;27.57;30.71;100676.47;4156756;28;20069;-60
2021/10/21 08:21:35;;;;;;;8.45;1.83;;;;;;;27.57;30.36;100676.47;4156401;28;20085;-60
2021/10/21 08:23:38;;;;;;;7.30;2.20;;;;;;;27.56;29.91;100669.41;4156461;28;20046;-60
2021/10/21 08:25:40;;;;;;;11.13;2.25;;;;;;;27.46;29.73;100680.34;4156610;28;20041;-60
2021/10/21 08:27:42;;;;;;;9.40;1.90;;;;;;;27.43;29.55;100686.09;4156768;28;20046;-60
2021/10/21 08:29:45;;;;;;;10.60;1.75;;;;;;;27.40;29.60;100684.53;4155587;28;20088;-60
2021/10/21 08:31:48;;;;;;;12.68;2.05;;;;;;;27.34;29.88;100670.84;4156023;28;20061;-59
2021/10/21 08:33:50;;;;;;;11.10;2.15;;;;;;;27.36;29.59;100680.47;4156540;28;20050;-59
2021/10/21 08:35:54;;;;;;;12.50;2.13;;;;;;;27.24;29.36;100661.03;4156397;28;20042;-59
2021/10/21 08:37:58;;;;;;;13.00;2.03;;;;;;;27.29;29.32;100686.69;4156114;28;20326;-59
2021/10/21 08:40:01;;;;;;;8.73;2.00;;;;;;;27.23;29.47;100678.25;4156033;28;20050;-59
2021/10/21 08:42:05;;;;;;;8.77;2.00;;;;;;;27.27;29.99;100682.31;4155981;28;20046;-59
2021/10/21 08:44:07;;;;;;;11.18;2.10;;;;;;;27.23;29.92;100685.50;4156163;28;20041;-58
2021/10/21 08:46:11;;;;;;;10.63;2.08;;;;;;;27.16;29.79;100679.06;4155842;28;20068;-58
2021/10/21 08:48:13;;;;;;;9.00;1.77;;;;;;;27.13;30.03;100688.34;4154664;28;20041;-58
2021/10/21 08:50:17;;;;;;;6.53;1.60;;;;;;;27.12;29.79;100685.81;4156367;28;20052;-59
2021/10/21 08:52:20;;;;;;;7.43;1.90;;;;;;;27.08;29.89;100699.63;4156221;28;20049;-58
2021/10/21 08:54:22;;;;;;;9.73;2.13;;;;;;;27.05;30.10;100696.41;4156374;28;20088;-59
2021/10/21 08:56:25;;;;;;;7.70;1.65;;;;;;;27.05;30.18;100691.88;4156235;28;20038;-59
2021/10/21 08:58:28;;;;;;;9.40;1.90;;;;;;;27.06;30.14;100693.56;4153373;28;20116;-59
2021/10/21 09:00:33;;;;;;;7.55;1.90;;;;;;;27.05;30.21;100699.09;4144533;28;20045;-61
2021/10/21 09:05:09;;;;;;;10.75;1.83;;;;;;;26.96;30.35;100692.84;4145416;28;20591;-60
2021/10/21 09:09:21;;;;;;;7.55;1.90;;;;;;;26.92;30.30;100686.09;4146470;28;20041;-60
2021/10/21 09:11:23;;;;;;;19.35;2.78;;;;;;;26.90;30.00;100685.38;4144783;28;20046;-60
2021/10/21 09:13:31;;;;;;;22.58;2.97;;;;;;;26.89;29.82;100687.25;4146008;28;20046;-60
2021/10/21 09:15:34;;;;;;;21.52;2.60;;;;;;;26.88;30.18;100696.34;4130136;28;20043;-60
2021/10/21 09:17:36;;;;;;;23.05;2.72;;;;;;;26.88;30.15;100685.56;4137779;28;20429;-59
2021/10/21 09:19:40;;;;;;;15.23;2.33;;;;;;;26.87;30.00;100697.34;4145740;28;20042;-60
2021/10/21 09:21:42;;;;;;;18.10;2.83;;;;;;;26.82;29.84;100696.13;4146048;28;20049;-59
2021/10/21 09:23:44;;;;;;;13.23;2.20;;;;;;;26.83;30.22;100698.69;4146146;28;20049;-58
2021/10/21 09:25:46;;;;;;;18.85;3.15;;;;;;;26.84;30.15;100702.22;4145528;28;20056;-59
2021/10/21 09:27:52;;;;;;;20.83;3.30;;;;;;;26.87;29.85;100701.91;4146056;28;20593;-59
2021/10/21 09:29:56;;;;;;;14.50;2.92;;;;;;;26.88;30.19;100706.28;4146209;28;20045;-58
2021/10/21 09:32:06;;;;;;;13.60;2.70;;;;;;;26.90;29.54;100702.44;4146293;28;20054;-58
2021/10/21 09:34:19;;;;;;;13.80;2.33;;;;;;;26.91;29.52;100698.72;4145843;28;20046;-59
2021/10/21 09:36:22;;;;;;;8.75;2.30;;;;;;;26.84;29.62;100696.84;4130074;28;20057;-59